Tiempo atmosférico en la estación meteorológica de Prat de Lluçanès, Barcelona (700 m.)



Fecha
DESCASC
Temp. máxima en grados centígrados (hora)
DESCASC
Temp. mínima en grados centígrados (hora)
DESCASC
Temp. media en grados centígrados
DESCASC
Racha de viento máxima en m/sg (hora)
DESCASC
Velocidad máxima media en intervalos de 10 minutos(hora)
DESCASC
Precipitaciones diarias en mm
DESCASC
Precipitaciones de 00:00 a 06:00 en mm
DESCASC
Precipitaciones de 06:00 a 12:00 en mm
DESCASC
Precipitaciones de 12:00 a 18:00 en mm
DESCASC
Precipitaciones de 18:00 a 24:00 en mm
DESCASC

Gráficas

Temp. máximas Temp. mínimas Temp. medias Precipitaciones Rachas de viento máximas Velocidades máximas media en intervalos de 10 minutos

Datos horarios

Fecha y hora oficial Temperatura (ºC) Velocidad del viento (km/h) Dirección del viento Racha (km/h) Dirección de racha Precipitación (mm) Presión (hPa) Tendencia (hPa) Humedad (%)
2019-01-19 23:00:00 0.4 2 Sudoeste 6 Sur 0 -- -- 94
2019-01-19 22:00:00 -0.7 3 Sudoeste 5 Sudoeste 0 -- -- 98
2019-01-19 21:00:00 -0.7 2 Norte 4 Noroeste 0 -- -- 95
2019-01-19 20:00:00 0.2 0 Calma 7 Oeste 0 -- -- 93
2019-01-19 19:00:00 1.1 0 Calma 3 Noroeste 0 -- -- 90
2019-01-19 18:00:00 3.6 0 Calma 10 Sudoeste 0 -- -- 79
2019-01-19 17:00:00 5.9 5 Sur 13 Sudoeste 0 -- -- 67
2019-01-19 16:00:00 7 5 Sur 18 Sur 0 -- -- 60
2019-01-19 15:00:00 7.4 6 Sur 19 Sudoeste 0 -- -- 63
2019-01-19 14:00:00 6.2 8 Sudoeste 13 Sudoeste 0 -- -- 73
2019-01-19 13:00:00 4.9 6 Oeste 11 Oeste 0 -- -- 82
2019-01-19 12:00:00 3.8 4 Sudoeste 10 Sudoeste 0 -- -- 89
2019-01-19 11:00:00 2.2 0 Calma 5 Sudoeste 0 -- -- 96
2019-01-19 10:00:00 0.4 0 Calma 6 Noroeste 0 -- -- 100
2019-01-19 09:00:00 -2.6 0 Calma 6 Noroeste 0 -- -- 100
2019-01-19 08:00:00 -2.8 0 Calma 5 Noroeste 0 -- -- 100
2019-01-19 07:00:00 -2.9 0 Calma 4 Norte 0 -- -- 98
2019-01-19 06:00:00 -2.1 0 Calma 4 Noroeste 0 -- -- 98
2019-01-19 05:00:00 -1.7 2 Nordeste 5 Norte 0 -- -- 99
2019-01-19 04:00:00 -1.6 3 Norte 5 Norte 0 -- -- 98
2019-01-19 03:00:00 -0.6 3 Norte 6 Norte 0 -- -- 97
2019-01-19 02:00:00 -0.1 0 Calma 6 Norte 0 -- -- 98
2019-01-19 01:00:00 0 2 Norte 7 Noroeste 0 -- -- 99
2019-01-19 00:00:00 -0.2 2 Noroeste 5 Noroeste 0 -- -- 98
2019-01-18 23:00:00 -0.1 3 Noroeste 6 Noroeste 0 -- -- 96
2019-01-18 22:00:00 1 4 Noroeste 17 Nordeste 0 -- -- 96
2019-01-18 21:00:00 1.2 3 Norte 10 Oeste 0 -- -- 98
2019-01-18 20:00:00 1.4 3 Oeste 4 Sudoeste 0 -- -- 96
2019-01-18 19:00:00 1.9 0 Calma 6 Oeste 0 -- -- 95
2019-01-18 18:00:00 2.3 2 Sur 8 Este 0 -- -- 93
2019-01-18 17:00:00 2.6 2 Sur 5 Sudoeste 0 -- -- 89
2019-01-18 16:00:00 2.6 3 Este 6 Norte 0 -- -- 91
2019-01-18 15:00:00 2 3 Noroeste 13 Noroeste 0 -- -- 92
2019-01-18 14:00:00 1.3 4 Noroeste 9 Sur 0 -- -- 95
2019-01-18 13:00:00 1.1 6 Oeste 13 Sudoeste 0 -- -- 99
2019-01-18 12:00:00 1 5 Sudoeste 10 Sudoeste 0 -- -- 100
2019-01-18 11:00:00 1.1 4 Sur 8 Sur 0 -- -- 100
2019-01-18 10:00:00 0.6 5 Oeste 9 Noroeste 0 -- -- 100
2019-01-18 09:00:00 0.3 5 Oeste 8 Sudoeste 0 -- -- 100
2019-01-18 08:00:00 0.4 2 Sur 5 Sur 0 -- -- 100
2019-01-18 07:00:00 0.6 3 Este 8 Sudoeste 0 -- -- 100
2019-01-18 06:00:00 1.1 4 Sudoeste 7 Sudoeste 0 -- -- 100
2019-01-18 05:00:00 2 2 Sur 8 Sudoeste 0 -- -- 100
2019-01-18 04:00:00 2.6 3 Sur 7 Sudoeste 0 -- -- 100
2019-01-18 03:00:00 2.7 3 Noroeste 5 Oeste 0.2 -- -- 100
2019-01-18 02:00:00 3.1 2 Nordeste 5 Nordeste 0 -- -- 100
2019-01-18 01:00:00 3.1 3 Noroeste 6 Noroeste 0 -- -- 100
2019-01-18 00:00:00 3.9 3 Noroeste 5 Noroeste 0 -- -- 99
2019-01-17 23:00:00 4.1 0 Calma 4 Sudoeste 0 -- -- 99
2019-01-17 22:00:00 4.5 0 Calma 4 Este 0 -- -- 98
2019-01-17 21:00:00 5.3 0 Calma 3 Noroeste 0.6 -- -- 97
2019-01-17 20:00:00 5.8 0 Calma 3 Sudoeste 0.4 -- -- 95
2019-01-17 19:00:00 6.3 2 Sudoeste 8 Oeste 0.2 -- -- 92
2019-01-17 18:00:00 6.9 3 Oeste 9 Oeste 0 -- -- 85
2019-01-17 17:00:00 7.7 6 Sudoeste 10 Sudoeste 0 -- -- 80
2019-01-17 16:00:00 8.7 8 Oeste 14 Sudoeste 0 -- -- 75
2019-01-17 15:00:00 9.6 2 Sur 8 Sur 0 -- -- 68
2019-01-17 14:00:00 9.8 5 Sudoeste 10 Sudoeste 0 -- -- 65
2019-01-17 13:00:00 9.3 3 Sudeste 10 Este 0 -- -- 67
2019-01-17 12:00:00 7.8 4 Este 11 Nordeste 0 -- -- 71
2019-01-17 11:00:00 6.5 5 Nordeste 11 Nordeste 0 -- -- 82
2019-01-17 10:00:00 4.3 3 Nordeste 5 Nordeste 0 -- -- 99
2019-01-17 09:00:00 2.8 0 Calma 6 Noroeste 0 -- -- 99
2019-01-17 08:00:00 3 3 Noroeste 4 Noroeste 0 -- -- 98
2019-01-17 07:00:00 3.5 2 Este 4 Nordeste 0 -- -- 98
2019-01-17 06:00:00 3.7 2 Sur 7 Oeste 0 -- -- 96
2019-01-17 05:00:00 3.8 2 Oeste 9 Oeste 0 -- -- 98
2019-01-17 04:00:00 3.8 4 Oeste 6 Oeste 0 -- -- 100
2019-01-17 03:00:00 3.8 7 Oeste 14 Oeste 0 -- -- 100
2019-01-17 02:00:00 3.3 8 Noroeste 13 Noroeste 0 -- -- 100
2019-01-17 01:00:00 2.9 4 Noroeste 5 Noroeste 0 -- -- 100
2019-01-17 00:00:00 2.5 0 Calma 4 Noroeste 0 -- -- 100
2019-01-16 23:00:00 2.5 0 Calma 3 Noroeste 0 -- -- 100
2019-01-16 22:00:00 2.2 2 Norte 5 Noroeste 0 -- -- 100
2019-01-16 21:00:00 1 3 Norte 5 Noroeste 0 -- -- 99
2019-01-16 20:00:00 1.1 3 Noroeste 5 Norte 0 -- -- 96
2019-01-16 19:00:00 2.8 3 Norte 5 Noroeste 0 -- -- 91
2019-01-16 18:00:00 6.5 2 Sur 12 Sur 0 -- -- 88
2019-01-16 17:00:00 8.8 5 Sur 13 Sur 0 -- -- 83
2019-01-16 16:00:00 9.9 5 Sur 12 Sur 0 -- -- 75
2019-01-16 15:00:00 8.9 5 Sur 13 Sudoeste 0 -- -- 75
2019-01-16 14:00:00 5.3 3 Sur 13 Sur 0 -- -- 96
2019-01-16 13:00:00 5.1 6 Sur 18 Sudoeste 0 -- -- 93